createdAt,value
2023-04-21T00:00:35.024Z,32.40
2023-04-21T00:01:39.650Z,30.50
2023-04-21T00:02:44.079Z,34.20
2023-04-21T00:03:48.258Z,31.00
2023-04-21T00:04:52.256Z,33.00
2023-04-21T00:05:56.863Z,34.20
2023-04-21T00:07:00.830Z,34.60
2023-04-21T00:08:05.262Z,33.20
2023-04-21T00:09:09.795Z,34.10
2023-04-21T00:10:14.119Z,31.40
2023-04-21T00:11:18.696Z,31.00
2023-04-21T00:12:22.786Z,30.00
2023-04-21T00:13:27.111Z,31.30
2023-04-21T00:14:31.213Z,35.10
2023-04-21T00:15:35.581Z,32.20
2023-04-21T00:16:40.168Z,31.50
2023-04-21T00:17:44.490Z,33.60
2023-04-21T00:18:48.794Z,34.20
2023-04-21T00:19:53.375Z,32.10
2023-04-21T00:20:57.463Z,35.40
2023-04-21T00:22:01.833Z,31.40
2023-04-21T00:23:09.430Z,34.10
2023-04-21T00:24:08.288Z,31.80
2023-04-21T00:25:12.637Z,34.60
2023-04-21T00:26:17.221Z,36.30
2023-04-21T00:27:21.542Z,33.50
2023-04-21T00:28:25.944Z,31.30
2023-04-21T00:29:29.961Z,31.90
2023-04-21T00:30:30.613Z,33.50
2023-04-21T00:31:34.491Z,31.20
2023-04-21T00:32:39.105Z,31.60
2023-04-21T00:33:43.360Z,32.40
2023-04-21T00:34:47.707Z,29.80
2023-04-21T00:35:52.052Z,32.40
2023-04-21T00:36:56.123Z,31.70
2023-04-21T00:38:00.485Z,32.70
2023-04-21T00:39:04.829Z,32.30
2023-04-21T00:40:05.917Z,31.60
2023-04-21T00:41:13.209Z,33.60
2023-04-21T00:42:17.574Z,33.90
2023-04-21T00:43:22.127Z,32.90
2023-04-21T00:44:25.946Z,31.80
2023-04-21T00:45:30.315Z,34.50
2023-04-21T00:46:34.962Z,33.70
2023-04-21T00:47:39.014Z,33.20
2023-04-21T00:48:43.326Z,32.80
2023-04-21T00:49:47.652Z,31.90
2023-04-21T00:50:52.505Z,31.80
2023-04-21T00:51:56.571Z,31.80
2023-04-21T00:53:00.920Z,34.60
2023-04-21T00:54:04.995Z,31.00
2023-04-21T00:55:09.340Z,33.00
2023-04-21T00:56:13.698Z,36.40
2023-04-21T00:57:18.289Z,31.70
2023-04-21T00:58:22.356Z,36.80
2023-04-21T00:59:26.710Z,35.50
2023-04-21T01:00:32.940Z,31.60
2023-04-21T01:01:36.433Z,34.10
2023-04-21T01:02:40.877Z,34.60
2023-04-21T01:03:45.464Z,36.60
2023-04-21T01:04:49.659Z,32.10
2023-04-21T01:05:53.991Z,30.90
2023-04-21T01:06:58.057Z,32.60
2023-04-21T01:08:02.652Z,32.80
2023-04-21T01:09:07.247Z,38.40
2023-04-21T01:10:11.321Z,35.00
2023-04-21T01:11:15.390Z,35.10
2023-04-21T01:12:19.732Z,36.10
2023-04-21T01:13:24.635Z,35.60
2023-04-21T01:14:28.734Z,31.90
2023-04-21T01:15:33.052Z,33.10
2023-04-21T01:16:37.229Z,33.50
2023-04-21T01:17:41.816Z,33.80
2023-04-21T01:18:46.319Z,32.60
2023-04-21T01:19:50.392Z,31.50
2023-04-21T01:20:54.481Z,36.30
2023-04-21T01:21:58.817Z,35.00
2023-04-21T01:23:03.144Z,34.30
2023-04-21T01:24:07.736Z,35.20
2023-04-21T01:25:11.811Z,33.20
2023-04-21T01:26:16.672Z,34.90
2023-04-21T01:27:21.000Z,34.20
2023-04-21T01:28:25.071Z,33.00
2023-04-21T01:29:29.145Z,34.70
2023-04-21T01:30:35.010Z,33.40
2023-04-21T01:31:38.880Z,35.10
2023-04-21T01:32:43.254Z,31.30
2023-04-21T01:33:47.750Z,34.00
2023-04-21T01:34:52.102Z,35.70
2023-04-21T01:35:56.670Z,35.50
2023-04-21T01:37:01.014Z,37.30
2023-04-21T01:38:04.842Z,34.80
2023-04-21T01:39:09.176Z,36.10
2023-04-21T01:40:13.785Z,34.10
2023-04-21T01:41:18.107Z,33.90
2023-04-21T01:42:22.452Z,34.20
2023-04-21T01:43:26.884Z,36.50
2023-04-21T01:44:31.483Z,35.20
2023-04-21T01:45:35.687Z,38.30
2023-04-21T01:46:39.881Z,33.90
2023-04-21T01:47:43.981Z,31.30
2023-04-21T01:48:48.275Z,32.70
2023-04-21T01:49:52.608Z,33.70
2023-04-21T01:50:57.226Z,34.60
2023-04-21T01:52:01.588Z,34.30
2023-04-21T01:53:05.920Z,37.20
2023-04-21T01:54:10.257Z,34.40
2023-04-21T01:55:14.564Z,34.70
2023-04-21T01:56:18.644Z,32.90
2023-04-21T01:57:23.248Z,34.20
2023-04-21T01:58:27.586Z,34.80
2023-04-21T01:59:31.672Z,36.00
2023-04-21T02:00:37.276Z,31.50
2023-04-21T02:01:41.385Z,37.60
2023-04-21T02:02:46.153Z,34.30
2023-04-21T02:03:50.526Z,38.30
2023-04-21T02:04:54.655Z,33.40
2023-04-21T02:05:58.959Z,36.20
2023-04-21T02:07:03.082Z,37.40
2023-04-21T02:08:07.371Z,35.50
2023-04-21T02:09:11.702Z,34.50
2023-04-21T02:10:16.301Z,38.00
2023-04-21T02:11:20.645Z,35.20
2023-04-21T02:12:25.249Z,34.50
2023-04-21T02:13:29.048Z,34.40
2023-04-21T02:14:33.654Z,34.20
2023-04-21T02:15:38.009Z,37.70
2023-04-21T02:16:42.364Z,36.20
2023-04-21T02:17:46.424Z,32.50
2023-04-21T02:18:50.738Z,37.50
2023-04-21T02:19:55.365Z,33.20
2023-04-21T02:20:59.660Z,35.60
2023-04-21T02:22:04.008Z,35.30
2023-04-21T02:23:08.076Z,34.70
2023-04-21T02:24:12.686Z,37.70
2023-04-21T02:25:16.997Z,33.50
2023-04-21T02:26:21.077Z,36.10
2023-04-21T02:27:25.690Z,37.20
2023-04-21T02:28:30.013Z,34.50
2023-04-21T02:29:34.606Z,33.30
2023-04-21T02:30:41.424Z,32.40
2023-04-21T02:31:56.634Z,33.90
2023-04-21T02:32:48.188Z,36.70
2023-04-21T02:33:52.702Z,33.00
2023-04-21T02:34:57.068Z,31.80
2023-04-21T02:36:01.390Z,34.60
2023-04-21T02:37:05.487Z,36.20
2023-04-21T02:38:10.338Z,35.70
2023-04-21T02:39:14.432Z,35.00
2023-04-21T02:40:18.505Z,33.40
2023-04-21T02:41:22.848Z,33.00
2023-04-21T02:42:27.212Z,32.20
2023-04-21T02:43:31.516Z,29.90
2023-04-21T02:44:35.404Z,34.10
2023-04-21T02:45:37.268Z,31.10
2023-04-21T02:46:41.959Z,29.20
2023-04-21T02:47:45.982Z,35.00
2023-04-21T02:48:50.581Z,34.90
2023-04-21T02:49:55.120Z,32.70
2023-04-21T02:50:58.985Z,31.90
2023-04-21T02:52:03.293Z,30.50
2023-04-21T02:53:07.898Z,36.60
2023-04-21T02:54:12.208Z,34.40
2023-04-21T02:55:15.561Z,33.10
2023-04-21T02:56:20.903Z,35.00
2023-04-21T02:57:25.226Z,31.90
2023-04-21T02:58:29.567Z,34.50
2023-04-21T02:59:33.920Z,32.50
2023-04-21T03:00:38.092Z,33.80
2023-04-21T03:01:38.638Z,32.20
2023-04-21T03:02:42.944Z,34.20
2023-04-21T03:03:47.155Z,34.00
2023-04-21T03:04:51.400Z,36.70
2023-04-21T03:05:55.749Z,37.40
2023-04-21T03:07:00.208Z,34.60
2023-04-21T03:08:04.196Z,34.90
2023-04-21T03:09:08.769Z,34.10
2023-04-21T03:10:13.711Z,35.30
2023-04-21T03:11:17.273Z,35.30
2023-04-21T03:12:21.853Z,35.70
2023-04-21T03:13:25.939Z,32.80
2023-04-21T03:14:30.526Z,34.60
2023-04-21T03:15:34.606Z,34.10
2023-04-21T03:16:39.226Z,33.40
2023-04-21T03:17:43.582Z,32.80
2023-04-21T03:18:48.112Z,38.50
2023-04-21T03:19:52.205Z,34.10
2023-04-21T03:20:56.529Z,35.50
2023-04-21T03:22:00.616Z,35.90
2023-04-21T03:23:05.221Z,37.80
2023-04-21T03:24:09.344Z,36.40
2023-04-21T03:25:13.729Z,41.50
2023-04-21T03:26:18.310Z,36.20
2023-04-21T03:27:22.667Z,36.00
2023-04-21T03:28:27.212Z,35.90
2023-04-21T03:29:31.046Z,33.10
2023-04-21T03:30:35.690Z,34.50
2023-04-21T03:31:35.580Z,36.90
2023-04-21T03:32:39.987Z,35.60
2023-04-21T03:33:44.216Z,36.90
2023-04-21T03:34:48.586Z,39.30
2023-04-21T03:35:53.188Z,40.10
2023-04-21T03:36:57.514Z,36.20
2023-04-21T03:38:03.826Z,34.80
2023-04-21T03:39:19.202Z,36.30
2023-04-21T03:40:10.520Z,35.70
2023-04-21T03:41:14.852Z,37.20
2023-04-21T03:42:18.925Z,36.50
2023-04-21T03:43:23.269Z,35.90
2023-04-21T03:44:27.592Z,36.00
2023-04-21T03:45:32.194Z,37.10
2023-04-21T03:46:36.258Z,35.80
2023-04-21T03:47:40.902Z,33.70
2023-04-21T03:48:45.198Z,38.20
2023-04-21T03:49:46.052Z,38.10
2023-04-21T03:50:53.427Z,38.40
2023-04-21T03:51:57.499Z,36.40
2023-04-21T03:53:01.832Z,34.40
2023-04-21T03:54:06.446Z,35.10
2023-04-21T03:55:10.519Z,40.40
2023-04-21T03:56:14.832Z,38.20
2023-04-21T03:57:19.421Z,36.20
2023-04-21T03:58:23.768Z,40.50
2023-04-21T03:59:27.841Z,38.30
2023-04-21T04:00:32.177Z,39.40
2023-04-21T04:01:32.304Z,43.40
2023-04-21T04:02:36.723Z,36.40
2023-04-21T04:03:41.350Z,38.40
2023-04-21T04:04:45.584Z,39.90
2023-04-21T04:05:49.642Z,39.60
2023-04-21T04:06:54.249Z,41.20
2023-04-21T04:07:58.564Z,39.60
2023-04-21T04:09:03.179Z,43.40
2023-04-21T04:10:07.480Z,38.70
2023-04-21T04:11:11.807Z,40.60
2023-04-21T04:12:16.000Z,43.80
2023-04-21T04:13:20.082Z,41.20
2023-04-21T04:14:24.418Z,40.20
2023-04-21T04:15:28.758Z,40.40
2023-04-21T04:16:33.197Z,40.50
2023-04-21T04:17:37.991Z,40.70
2023-04-21T04:18:42.016Z,41.00
2023-04-21T04:19:46.093Z,40.90
2023-04-21T04:20:50.700Z,40.40
2023-04-21T04:21:55.032Z,36.70
2023-04-21T04:22:55.820Z,39.20
2023-04-21T04:24:03.189Z,43.20
2023-04-21T04:25:07.489Z,38.30
2023-04-21T04:26:11.573Z,39.60
2023-04-21T04:27:16.428Z,43.70
2023-04-21T04:28:20.505Z,41.50
2023-04-21T04:29:24.589Z,41.90
2023-04-21T04:30:29.182Z,44.30
2023-04-21T04:31:29.338Z,43.00
2023-04-21T04:32:33.650Z,40.60
2023-04-21T04:33:37.961Z,41.40
2023-04-21T04:34:42.294Z,40.70
2023-04-21T04:35:46.629Z,41.80
2023-04-21T04:36:50.952Z,42.90
2023-04-21T04:37:55.063Z,43.00
2023-04-21T04:38:59.644Z,41.50
2023-04-21T04:40:04.224Z,37.90
2023-04-21T04:41:08.294Z,39.00
2023-04-21T04:42:12.648Z,39.10
2023-04-21T04:43:16.994Z,39.60
2023-04-21T04:44:21.936Z,42.60
2023-04-21T04:45:25.700Z,42.40
2023-04-21T04:46:29.804Z,39.60
2023-04-21T04:47:34.406Z,39.10
2023-04-21T04:48:38.718Z,38.50
2023-04-21T04:49:43.042Z,40.40
2023-04-21T04:50:47.382Z,42.90
2023-04-21T04:51:51.450Z,39.80
2023-04-21T04:52:56.055Z,40.90
2023-04-21T04:54:00.133Z,37.00
2023-04-21T04:55:04.720Z,37.40
2023-04-21T04:56:09.045Z,38.70
2023-04-21T04:57:13.639Z,37.90
2023-04-21T04:58:18.337Z,37.00
2023-04-21T04:59:21.922Z,35.20
2023-04-21T05:00:26.233Z,37.80
2023-04-21T05:01:26.631Z,37.50
2023-04-21T05:02:31.114Z,38.40
2023-04-21T05:03:35.192Z,36.30
2023-04-21T05:04:39.826Z,37.50
2023-04-21T05:05:43.941Z,40.80
2023-04-21T05:06:48.026Z,38.70
2023-04-21T05:07:52.344Z,36.10
2023-04-21T05:08:56.938Z,38.00
2023-04-21T05:10:01.286Z,35.60
2023-04-21T05:11:05.346Z,36.50
2023-04-21T05:12:09.681Z,34.10
2023-04-21T05:13:14.042Z,34.10
2023-04-21T05:14:19.006Z,37.20
2023-04-21T05:15:22.348Z,38.10
2023-04-21T05:16:27.220Z,34.50
2023-04-21T05:17:31.819Z,36.40
2023-04-21T05:18:36.180Z,36.20
2023-04-21T05:19:40.284Z,33.70
2023-04-21T05:20:44.611Z,36.20
2023-04-21T05:21:49.219Z,35.80
2023-04-21T05:22:53.338Z,36.30
2023-04-21T05:23:57.721Z,33.70
2023-04-21T05:25:02.315Z,35.40
2023-04-21T05:26:06.684Z,33.80
2023-04-21T05:27:11.033Z,36.10
2023-04-21T05:28:15.139Z,34.50
2023-04-21T05:29:19.777Z,33.00
2023-04-21T05:30:24.140Z,36.30
2023-04-21T05:31:24.358Z,30.70
2023-04-21T05:32:28.560Z,31.40
2023-04-21T05:33:32.758Z,34.10
2023-04-21T05:34:37.387Z,32.20
2023-04-21T05:35:41.493Z,30.20
2023-04-21T05:36:45.830Z,29.00
2023-04-21T05:37:50.423Z,28.80
2023-04-21T05:38:54.745Z,27.40
2023-04-21T05:39:58.845Z,29.90
2023-04-21T05:41:03.181Z,29.60
2023-04-21T05:42:07.810Z,26.60
2023-04-21T05:43:12.171Z,26.90
2023-04-21T05:44:16.518Z,28.00
2023-04-21T05:45:20.831Z,26.70
2023-04-21T05:46:25.261Z,25.60
2023-04-21T05:47:29.799Z,25.70
2023-04-21T05:48:33.842Z,28.50
2023-04-21T05:49:38.188Z,27.20
2023-04-21T05:50:42.535Z,27.70
2023-04-21T05:51:46.632Z,23.70
2023-04-21T05:52:50.956Z,24.30
2023-04-21T05:53:55.307Z,26.30
2023-04-21T05:54:59.645Z,27.50
2023-04-21T05:56:04.497Z,26.30
2023-04-21T05:57:08.588Z,26.70
2023-04-21T05:58:12.665Z,24.00
2023-04-21T05:59:17.255Z,24.70
2023-04-21T06:00:21.605Z,26.30
2023-04-21T06:01:21.843Z,21.50
2023-04-21T06:02:26.031Z,27.00
2023-04-21T06:03:30.370Z,23.00
2023-04-21T06:04:35.115Z,24.90
2023-04-21T06:05:38.985Z,23.30
2023-04-21T06:06:43.267Z,24.00
2023-04-21T06:07:47.951Z,26.40
2023-04-21T06:08:52.229Z,23.50
2023-04-21T06:09:56.313Z,23.70
2023-04-21T06:11:00.654Z,24.70
2023-04-21T06:12:05.247Z,20.90
2023-04-21T06:13:09.590Z,23.70
2023-04-21T06:14:13.940Z,27.70
2023-04-21T06:15:18.300Z,24.80
2023-04-21T06:16:22.766Z,22.50
2023-04-21T06:17:27.316Z,21.90
2023-04-21T06:18:31.097Z,23.20
2023-04-21T06:19:35.673Z,23.40
2023-04-21T06:20:40.030Z,25.30
2023-04-21T06:21:44.344Z,21.90
2023-04-21T06:22:48.695Z,23.20
2023-04-21T06:23:53.044Z,22.70
2023-04-21T06:24:58.612Z,23.00
2023-04-21T06:26:01.981Z,25.60
2023-04-21T06:27:06.110Z,25.80
2023-04-21T06:28:10.168Z,24.10
2023-04-21T06:29:14.774Z,23.60
2023-04-21T06:30:19.136Z,24.10
2023-04-21T06:31:19.313Z,27.10
2023-04-21T06:32:23.647Z,22.40
2023-04-21T06:33:34.509Z,24.40
2023-04-21T06:34:32.322Z,21.70
2023-04-21T06:35:36.691Z,24.80
2023-04-21T06:36:41.276Z,24.80
2023-04-21T06:37:45.373Z,25.10
2023-04-21T06:38:49.699Z,23.80
2023-04-21T06:39:54.044Z,23.00
2023-04-21T06:40:58.165Z,23.40
2023-04-21T06:42:02.529Z,25.50
2023-04-21T06:43:06.835Z,24.30
2023-04-21T06:44:11.169Z,22.40
2023-04-21T06:45:15.823Z,25.60
2023-04-21T06:46:20.160Z,21.80
2023-04-21T06:47:24.758Z,23.50
2023-04-21T06:48:28.523Z,20.60
2023-04-21T06:49:32.872Z,25.70
2023-04-21T06:50:37.550Z,20.30
2023-04-21T06:51:41.895Z,27.20
2023-04-21T06:52:45.985Z,26.60
2023-04-21T06:53:50.576Z,24.30
2023-04-21T06:54:54.923Z,23.80
2023-04-21T06:55:59.275Z,23.00
2023-04-21T06:57:03.369Z,23.70
2023-04-21T06:58:07.730Z,19.40
2023-04-21T06:59:12.304Z,21.90
2023-04-21T07:00:16.388Z,17.90
2023-04-21T07:01:16.872Z,19.00
2023-04-21T07:02:23.934Z,23.30
2023-04-21T07:03:28.602Z,20.80
2023-04-21T07:04:27.198Z,20.50
2023-04-21T07:05:31.790Z,18.10
2023-04-21T07:06:36.101Z,20.30
2023-04-21T07:07:40.416Z,21.50
2023-04-21T07:08:44.779Z,20.30
2023-04-21T07:09:48.852Z,18.60
2023-04-21T07:10:53.857Z,17.60
2023-04-21T07:11:57.648Z,18.30
2023-04-21T07:13:02.013Z,19.80
2023-04-21T07:14:06.352Z,17.20
2023-04-21T07:15:10.688Z,19.20
2023-04-21T07:16:15.483Z,18.80
2023-04-21T07:17:19.647Z,17.50
2023-04-21T07:18:24.042Z,17.60
2023-04-21T07:19:29.125Z,20.30
2023-04-21T07:20:28.774Z,17.40
2023-04-21T07:21:32.931Z,19.30
2023-04-21T07:22:39.970Z,17.50
2023-04-21T07:23:39.103Z,19.30
2023-04-21T07:24:43.724Z,18.40
2023-04-21T07:25:47.813Z,18.70
2023-04-21T07:26:52.145Z,19.00
2023-04-21T07:27:56.764Z,17.10
2023-04-21T07:29:01.105Z,19.60
2023-04-21T07:30:05.696Z,19.80
2023-04-21T07:31:10.828Z,18.50
2023-04-21T07:32:15.166Z,20.50
2023-04-21T07:33:19.827Z,15.40
2023-04-21T07:34:23.661Z,17.90
2023-04-21T07:35:28.269Z,17.80
2023-04-21T07:36:32.611Z,15.30
2023-04-21T07:37:37.557Z,15.10
2023-04-21T07:38:41.583Z,14.20
2023-04-21T07:39:45.702Z,14.90
2023-04-21T07:40:50.027Z,19.10
2023-04-21T07:41:54.347Z,15.80
2023-04-21T07:42:58.697Z,13.40
2023-04-21T07:44:03.038Z,16.00
2023-04-21T07:45:07.397Z,17.60
2023-04-21T07:46:11.799Z,16.30
2023-04-21T07:47:16.725Z,15.90
2023-04-21T07:48:20.439Z,16.50
2023-04-21T07:49:24.770Z,13.80
2023-04-21T07:50:29.106Z,15.90
2023-04-21T07:51:33.442Z,16.30
2023-04-21T07:52:37.522Z,15.00
2023-04-21T07:53:41.885Z,13.00
2023-04-21T07:54:46.195Z,14.00
2023-04-21T07:55:50.783Z,13.80
2023-04-21T07:56:55.153Z,18.50
2023-04-21T07:57:59.221Z,20.90
2023-04-21T07:59:03.562Z,18.50
2023-04-21T08:00:07.914Z,16.50
2023-04-21T08:01:13.516Z,16.30
2023-04-21T08:02:17.651Z,15.60
2023-04-21T08:03:24.461Z,19.90
2023-04-21T08:04:26.644Z,17.00
2023-04-21T08:05:34.001Z,13.80
2023-04-21T08:06:34.965Z,19.40
2023-04-21T08:07:39.306Z,16.90
2023-04-21T08:08:43.894Z,17.70
2023-04-21T08:09:48.268Z,15.20
2023-04-21T08:11:00.340Z,19.60
2023-04-21T08:11:56.961Z,15.20
2023-04-21T08:13:01.010Z,14.90
2023-04-21T08:14:05.883Z,15.30
2023-04-21T08:15:09.968Z,19.60
2023-04-21T08:16:14.478Z,15.30
2023-04-21T08:17:18.390Z,16.10
2023-04-21T08:18:22.877Z,18.30
2023-04-21T08:19:27.354Z,16.90
2023-04-21T08:20:31.660Z,16.90
2023-04-21T08:21:36.016Z,16.80
2023-04-21T08:22:40.406Z,15.20
2023-04-21T08:23:44.720Z,14.30
2023-04-21T08:24:48.775Z,15.60
2023-04-21T08:25:53.404Z,16.10
2023-04-21T08:26:57.443Z,18.30
2023-04-21T08:28:02.046Z,15.60
2023-04-21T08:29:06.112Z,15.70
2023-04-21T08:30:10.709Z,15.00
2023-04-21T08:31:16.343Z,17.30
2023-04-21T08:32:20.408Z,14.90
2023-04-21T08:33:24.776Z,16.60
2023-04-21T08:34:29.100Z,16.20
2023-04-21T08:35:33.224Z,16.70
2023-04-21T08:36:37.830Z,19.20
2023-04-21T08:37:42.138Z,16.80
2023-04-21T08:38:46.484Z,18.10
2023-04-21T08:39:50.556Z,13.90
2023-04-21T08:40:55.463Z,20.50
2023-04-21T08:41:59.527Z,16.60
2023-04-21T08:43:03.887Z,16.60
2023-04-21T08:44:07.950Z,15.70
2023-04-21T08:45:12.572Z,16.10
2023-04-21T08:46:16.956Z,19.50
2023-04-21T08:47:20.993Z,15.90
2023-04-21T08:48:25.334Z,15.30
2023-04-21T08:49:29.923Z,17.50
2023-04-21T08:50:34.299Z,18.10
2023-04-21T08:51:38.337Z,14.80
2023-04-21T08:52:42.670Z,17.00
2023-04-21T08:53:47.270Z,17.60
2023-04-21T08:54:51.359Z,17.50
2023-04-21T08:56:07.688Z,17.70
2023-04-21T08:57:11.961Z,17.20
2023-04-21T08:58:04.381Z,17.00
2023-04-21T08:59:08.985Z,18.90
2023-04-21T09:00:13.330Z,15.50
2023-04-21T09:01:18.822Z,17.10
2023-04-21T09:02:23.151Z,17.80
2023-04-21T09:03:27.504Z,16.90
2023-04-21T09:04:31.894Z,18.10
2023-04-21T09:05:38.564Z,20.40
2023-04-21T09:06:40.723Z,21.30
2023-04-21T09:07:44.990Z,17.80
2023-04-21T09:08:49.078Z,15.80
2023-04-21T09:09:53.431Z,20.60
2023-04-21T09:10:57.494Z,17.40
2023-04-21T09:12:02.125Z,20.00
2023-04-21T09:13:06.457Z,18.40
2023-04-21T09:14:10.526Z,15.20
2023-04-21T09:15:14.883Z,19.60
2023-04-21T09:16:19.526Z,16.60
2023-04-21T09:17:23.850Z,17.10
2023-04-21T09:18:27.943Z,16.50
2023-04-21T09:19:32.274Z,14.90
2023-04-21T09:20:36.691Z,16.90
2023-04-21T09:21:40.962Z,16.10
2023-04-21T09:22:45.361Z,16.30
2023-04-21T09:23:49.668Z,13.60
2023-04-21T09:24:54.559Z,16.30
2023-04-21T09:25:58.877Z,14.20
2023-04-21T09:27:02.702Z,15.30
2023-04-21T09:28:07.325Z,14.50
2023-04-21T09:29:11.409Z,12.50
2023-04-21T09:30:16.020Z,17.80
2023-04-21T09:31:21.652Z,16.10
2023-04-21T09:32:25.450Z,17.90
2023-04-21T09:33:34.537Z,15.10
2023-04-21T09:34:34.630Z,12.40
2023-04-21T09:35:38.705Z,12.80
2023-04-21T09:36:43.026Z,12.80
2023-04-21T09:37:47.380Z,14.30
2023-04-21T09:38:58.846Z,14.60
2023-04-21T09:40:04.774Z,16.00
2023-04-21T09:41:00.147Z,13.50
2023-04-21T09:42:04.756Z,12.80
2023-04-21T09:43:09.111Z,11.90
2023-04-21T09:44:13.661Z,13.10
2023-04-21T09:46:21.852Z,16.70
2023-04-21T09:47:26.222Z,14.50
2023-04-21T09:48:30.770Z,11.50
2023-04-21T09:49:35.116Z,12.30
2023-04-21T09:51:22.107Z,12.50
2023-04-21T09:52:48.381Z,13.10
2023-04-21T09:53:52.463Z,12.00
2023-04-21T09:54:56.561Z,12.40
2023-04-21T09:56:00.931Z,11.90
2023-04-21T09:57:05.534Z,15.10
2023-04-21T09:58:09.600Z,11.80
2023-04-21T09:59:14.216Z,11.50
2023-04-21T10:00:18.537Z,12.10
2023-04-21T10:01:24.175Z,10.80
2023-04-21T10:02:28.171Z,13.10
2023-04-21T10:03:32.579Z,11.00
2023-04-21T10:04:40.132Z,12.60
2023-04-21T10:05:41.787Z,11.70
2023-04-21T10:06:43.457Z,10.80
2023-04-21T10:07:47.538Z,10.90
2023-04-21T10:08:52.137Z,11.20
2023-04-21T10:09:56.210Z,11.20
2023-04-21T10:11:00.805Z,11.10
2023-04-21T10:12:06.917Z,14.50
2023-04-21T10:13:09.227Z,11.30
2023-04-21T10:14:13.824Z,12.10
2023-04-21T10:15:18.317Z,10.20
2023-04-21T10:16:22.323Z,12.00
2023-04-21T10:17:27.045Z,10.70
2023-04-21T10:18:30.989Z,11.80
2023-04-21T10:19:35.611Z,13.30
2023-04-21T10:20:40.209Z,10.70
2023-04-21T10:21:44.045Z,12.30
2023-04-21T10:22:48.624Z,10.00
2023-04-21T10:23:52.969Z,9.80
2023-04-21T10:24:57.317Z,13.10
2023-04-21T10:26:01.381Z,11.30
2023-04-21T10:27:05.767Z,9.90
2023-04-21T10:28:10.342Z,10.60
2023-04-21T10:29:14.681Z,8.70
2023-04-21T10:30:19.030Z,8.90
2023-04-21T10:31:24.420Z,9.90
2023-04-21T10:32:28.485Z,7.30
2023-04-21T10:33:33.070Z,8.70
2023-04-21T10:34:37.142Z,9.40
2023-04-21T10:35:41.763Z,9.80
2023-04-21T10:36:46.094Z,11.90
2023-04-21T10:37:50.686Z,10.20
2023-04-21T10:38:55.043Z,11.00
2023-04-21T10:39:59.125Z,8.80
2023-04-21T10:41:03.447Z,10.20
2023-04-21T10:42:07.813Z,10.80
2023-04-21T10:43:12.119Z,9.50
2023-04-21T10:44:16.463Z,9.10
2023-04-21T10:45:20.548Z,11.10
2023-04-21T10:46:25.639Z,10.30
2023-04-21T10:47:29.510Z,9.00
2023-04-21T10:48:33.572Z,9.90
2023-04-21T10:49:38.175Z,8.00
2023-04-21T10:50:42.500Z,8.70
2023-04-21T10:51:46.843Z,8.90
2023-04-21T10:52:50.926Z,9.80
2023-04-21T10:53:55.293Z,6.10
2023-04-21T10:54:59.896Z,10.10
2023-04-21T10:56:04.248Z,10.30
2023-04-21T10:57:08.557Z,10.60
2023-04-21T10:58:12.656Z,10.60
2023-04-21T10:59:17.283Z,11.10
2023-04-21T11:00:21.624Z,9.70
2023-04-21T11:01:27.011Z,8.90
2023-04-21T11:02:31.447Z,11.20
2023-04-21T11:03:36.157Z,12.00
2023-04-21T11:04:40.116Z,10.40
2023-04-21T11:05:44.074Z,8.30
2023-04-21T11:06:48.673Z,7.90
2023-04-21T11:07:53.016Z,8.90
2023-04-21T11:08:57.114Z,9.60
2023-04-21T11:10:01.711Z,8.50
2023-04-21T11:11:06.035Z,9.70
2023-04-21T11:12:10.119Z,10.40
2023-04-21T11:13:14.984Z,8.30
2023-04-21T11:14:19.363Z,10.00
2023-04-21T11:15:23.154Z,8.00
2023-04-21T11:16:27.794Z,9.80
2023-04-21T11:17:32.127Z,7.70
2023-04-21T11:18:36.213Z,9.60
2023-04-21T11:19:40.772Z,9.20
2023-04-21T11:20:45.084Z,12.00
2023-04-21T11:21:49.174Z,10.80
2023-04-21T11:22:54.060Z,9.40
2023-04-21T11:23:57.882Z,11.60
2023-04-21T11:25:02.231Z,10.00
2023-04-21T11:26:06.834Z,11.30
2023-04-21T11:27:11.147Z,8.80
2023-04-21T11:28:15.512Z,11.10
2023-04-21T11:29:19.834Z,13.10
2023-04-21T11:30:24.213Z,12.30
2023-04-21T11:31:30.138Z,9.30
2023-04-21T11:32:35.649Z,7.80
2023-04-21T11:33:37.984Z,9.30
2023-04-21T11:34:42.363Z,8.90
2023-04-21T11:35:46.941Z,9.40
2023-04-21T11:36:51.023Z,12.80
2023-04-21T11:37:55.395Z,11.30
2023-04-21T11:38:59.726Z,10.30
2023-04-21T11:40:04.359Z,8.20
2023-04-21T11:41:08.703Z,13.40
2023-04-21T11:42:12.785Z,7.50
2023-04-21T11:43:17.373Z,8.40
2023-04-21T11:44:21.454Z,10.20
2023-04-21T11:45:25.810Z,9.40
2023-04-21T11:46:30.465Z,8.90
2023-04-21T11:47:34.513Z,9.10
2023-04-21T11:48:39.550Z,9.00
2023-04-21T11:49:43.433Z,7.30
2023-04-21T11:50:47.782Z,8.10
2023-04-21T11:51:52.106Z,9.70
2023-04-21T11:52:56.460Z,10.00
2023-04-21T11:54:00.824Z,7.80
2023-04-21T11:55:05.116Z,10.80
2023-04-21T11:56:09.462Z,8.70
2023-04-21T11:57:13.564Z,10.50
2023-04-21T11:58:18.407Z,10.50
2023-04-21T11:59:24.954Z,9.10
2023-04-21T12:00:26.838Z,7.90
2023-04-21T12:01:32.426Z,11.50
2023-04-21T12:02:36.388Z,7.30
2023-04-21T12:03:41.019Z,10.10
2023-04-21T12:05:59.515Z,10.30
2023-04-21T12:06:58.234Z,6.00
2023-04-21T12:08:02.557Z,6.90
2023-04-21T12:09:06.906Z,8.20
2023-04-21T12:10:11.221Z,9.10
2023-04-21T12:11:15.597Z,7.20
2023-04-21T12:12:19.938Z,7.90
2023-04-21T12:13:24.011Z,9.60
2023-04-21T12:14:28.349Z,8.30
2023-04-21T12:15:32.931Z,9.10
2023-04-21T12:16:37.049Z,9.60
2023-04-21T12:17:41.670Z,7.10
2023-04-21T12:18:46.197Z,13.20
2023-04-21T12:19:50.576Z,5.90
2023-04-21T12:20:54.640Z,10.90
2023-04-21T12:21:59.026Z,5.50
2023-04-21T12:23:03.059Z,6.10
2023-04-21T12:24:07.636Z,7.40
2023-04-21T12:25:12.329Z,7.50
2023-04-21T12:26:16.445Z,5.90
2023-04-21T12:27:20.747Z,5.70
2023-04-21T12:28:29.470Z,7.20
2023-04-21T12:29:29.381Z,8.90
2023-04-21T12:30:37.059Z,6.60
2023-04-21T12:31:37.330Z,8.00
2023-04-21T12:32:42.728Z,7.00
2023-04-21T12:33:47.103Z,5.80
2023-04-21T12:34:51.081Z,8.50
2023-04-21T12:35:51.471Z,7.60
2023-04-21T12:36:55.565Z,8.20
2023-04-21T12:38:02.904Z,7.10
2023-04-21T12:39:07.257Z,5.80
2023-04-21T12:40:05.866Z,6.00
2023-04-21T12:41:10.493Z,7.40
2023-04-21T12:42:23.830Z,7.80
2023-04-21T12:43:18.014Z,12.90
2023-04-21T12:44:22.353Z,8.80
2023-04-21T12:45:26.473Z,8.50
2023-04-21T12:46:30.812Z,10.80
2023-04-21T12:47:35.411Z,10.70
2023-04-21T12:48:39.477Z,5.80
2023-04-21T12:49:44.037Z,8.10
2023-04-21T12:50:48.607Z,10.30
2023-04-21T12:51:52.954Z,6.50
2023-04-21T12:52:56.777Z,4.80
2023-04-21T12:54:01.395Z,7.20
2023-04-21T12:55:05.447Z,5.60
2023-04-21T12:56:09.791Z,5.60
2023-04-21T12:57:14.388Z,7.90
2023-04-21T12:58:18.738Z,8.10
2023-04-21T12:59:23.084Z,8.00
2023-04-21T13:00:27.413Z,6.10
2023-04-21T13:01:31.864Z,10.00
2023-04-21T13:02:36.207Z,5.80
2023-04-21T13:03:40.588Z,10.80
2023-04-21T13:04:44.626Z,7.70
2023-04-21T13:05:45.770Z,7.60
2023-04-21T13:06:48.986Z,9.40
2023-04-21T13:07:53.339Z,6.00
2023-04-21T13:08:57.680Z,8.00
2023-04-21T13:10:02.039Z,7.60
2023-04-21T13:11:06.700Z,7.90
2023-04-21T13:12:11.179Z,8.30
2023-04-21T13:13:15.018Z,7.20
2023-04-21T13:14:19.345Z,8.00
2023-04-21T13:15:23.676Z,5.40
2023-04-21T13:16:30.212Z,6.10
2023-04-21T13:17:32.363Z,5.40
2023-04-21T13:18:36.695Z,8.20
2023-04-21T13:19:41.555Z,10.70
2023-04-21T13:20:45.635Z,6.10
2023-04-21T13:21:52.709Z,7.30
2023-04-21T13:22:54.290Z,6.20
2023-04-21T13:23:58.611Z,7.40
2023-04-21T13:25:02.957Z,8.70
2023-04-21T13:26:07.047Z,7.60
2023-04-21T13:27:11.357Z,8.60
2023-04-21T13:28:15.692Z,5.60
2023-04-21T13:29:20.272Z,6.10
2023-04-21T13:30:24.898Z,5.30
2023-04-21T13:31:28.727Z,6.60
2023-04-21T13:32:33.315Z,5.60
2023-04-21T13:33:37.617Z,6.70
2023-04-21T13:34:41.696Z,7.10
2023-04-21T13:35:41.810Z,9.60
2023-04-21T13:36:46.128Z,7.70
2023-04-21T13:37:50.728Z,10.40
2023-04-21T13:38:54.811Z,7.80
2023-04-21T13:39:59.393Z,5.80
2023-04-21T13:41:03.714Z,5.50
2023-04-21T13:42:08.333Z,10.30
2023-04-21T13:43:12.388Z,4.80
2023-04-21T13:44:16.484Z,7.80
2023-04-21T13:45:21.051Z,6.20
2023-04-21T13:46:25.171Z,5.90
2023-04-21T13:47:29.710Z,4.80
2023-04-21T13:48:33.860Z,5.80
2023-04-21T13:49:38.368Z,8.30
2023-04-21T13:50:42.710Z,6.90
2023-04-21T13:51:47.038Z,5.80
2023-04-21T13:52:51.105Z,4.60
2023-04-21T13:53:55.730Z,7.90
2023-04-21T13:55:00.058Z,6.10
2023-04-21T13:56:04.173Z,7.30